TimePST,TemperatureF,Dew PointF,Humidity,Sea Level PressureIn,VisibilityMPH,Wind Direction,Wind SpeedMPH,Gust SpeedMPH,PrecipitationIn,Events,Conditions,WindDirDegrees,DateUTC
12:56 AM,52.0,21.9,31,29.92,10.0,SW,3.5,-,N/A,,Clear,230,2013-02-17 08:56:00
1:56 AM,48.9,23.0,36,29.90,10.0,SW,4.6,-,N/A,,Clear,230,2013-02-17 09:56:00
2:56 AM,46.9,21.9,37,29.88,10.0,West,4.6,-,N/A,,Clear,260,2013-02-17 10:56:00
3:56 AM,45.0,21.9,40,29.87,10.0,West,4.6,-,N/A,,Clear,260,2013-02-17 11:56:00
4:56 AM,45.0,21.9,40,29.87,10.0,WSW,3.5,-,N/A,,Clear,250,2013-02-17 12:56:00
5:56 AM,43.0,21.9,43,29.88,10.0,SSW,4.6,-,N/A,,Clear,210,2013-02-17 13:56:00
6:56 AM,45.0,21.9,40,29.88,10.0,Calm,Calm,-,N/A,,Clear,0,2013-02-17 14:56:00
7:56 AM,53.1,21.9,30,29.88,10.0,Calm,Calm,-,N/A,,Clear,0,2013-02-17 15:56:00
8:56 AM,54.0,23.0,30,29.88,10.0,Calm,Calm,-,N/A,,Clear,0,2013-02-17 16:56:00
9:56 AM,59.0,23.0,25,29.86,10.0,Calm,Calm,-,N/A,,Clear,0,2013-02-17 17:56:00
10:56 AM,64.0,23.0,21,29.85,10.0,Variable,3.5,-,N/A,,Clear,0,2013-02-17 18:56:00
11:56 AM,68.0,23.0,18,29.82,10.0,Variable,4.6,-,N/A,,Clear,0,2013-02-17 19:56:00
12:56 PM,73.0,23.0,15,29.78,10.0,Variable,3.5,-,N/A,,Clear,0,2013-02-17 20:56:00
1:56 PM,78.1,9.0,7,29.74,10.0,WNW,12.7,17.3,N/A,,Clear,290,2013-02-17 21:56:00
2:56 PM,78.1,9.0,7,29.74,10.0,Variable,4.6,24.2,N/A,,Clear,0,2013-02-17 22:56:00
3:56 PM,78.1,10.0,7,29.74,10.0,WNW,13.8,-,N/A,,Clear,300,2013-02-17 23:56:00
4:56 PM,75.0,8.1,8,29.74,10.0,West,15.0,-,N/A,,Clear,280,2013-02-18 00:56:00
5:56 PM,71.1,9.0,9,29.75,10.0,West,11.5,-,N/A,,Clear,280,2013-02-18 01:56:00
6:56 PM,69.1,10.0,10,29.77,10.0,WNW,15.0,-,N/A,,Clear,290,2013-02-18 02:56:00
7:56 PM,68.0,12.0,11,29.79,10.0,WNW,13.8,-,N/A,,Clear,290,2013-02-18 03:56:00
8:56 PM,64.9,12.0,13,29.82,10.0,East,5.8,-,N/A,,Clear,90,2013-02-18 04:56:00
9:56 PM,66.9,10.0,11,29.82,10.0,West,4.6,-,N/A,,Clear,260,2013-02-18 05:56:00
10:56 PM,57.0,12.9,18,29.84,10.0,SSE,6.9,-,N/A,,Clear,150,2013-02-18 06:56:00
11:56 PM,57.9,15.1,19,29.86,10.0,SE,5.8,-,N/A,,Clear,140,2013-02-18 07:56:00